Airfield :
LOGIN :

Register | Disclaimer

   EN    FR    IT 

 










Legend :    VFR   Marginal VFR   IFR   Intensive IFR   Very Intensive IFR
Visi :
Ceiling :
>= 8 km
>= 3000ft
5 to 8 km
1000 to 3000 ft
1500m to 5 km
500 to 1000 ft
800 to 1500m
200 to 500 ft
< 800m
< 200 ft
Symbols :   Thunderstorms  Fog  Heavy snow  Heavy precipitations  Wind > 20 kt
SIGMETs :     Misc.  Thunderstorms  Icing  Turbulence  Mountain Waves  Volcanic Ashes







- Airport Elevation : 219 ft
- IATA code : DNR
- Download approach charts


LFRD - Dinard

CURRENT METAR :
  • 181130Z AUTO 33010KT 9999 FEW015 BKN036 OVC047 19/16 Q1014 TEMPO 4000 SHRA BKN013

EXPIRED METARs :
  • 181100Z AUTO 32010KT 9999 SCT015 BKN022 BKN028 20/16 Q1014 NOSIG
  • 181030Z AUTO 24005KT 190V280 9999 BKN012 OVC017 20/17 Q1014 TEMPO SHRA BECMG BKN025
  • 181000Z AUTO 25006KT 210V270 9999 BKN008 BKN012 BKN019 19/17 Q1014 TEMPO SHRA BECMG BKN025
  • 180930Z AUTO 24008KT 9999 BKN007 BKN021 OVC039 19/17 Q1014 TEMPO SHRA BECMG 32010KT BKN025
  • 180900Z AUTO 23008KT 9999 BKN007 OVC022 18/17 Q1014 TEMPO SHRA BECMG 32010KT BKN025

TAF TAF LFRD
Valid from the 18 at 12:00 until the 19 at 12:00 UTC


181100Z 1812/1912 32010KT 9999 BKN025
TEMPO 1812/1814 4000 SHRA BKN013
BECMG 1821/1824 VRB03KT
PROB30
TEMPO 1902/1905 3000 BR
BECMG 1907/1909 22010KT
ATIS : +33 2 99 16 81 50
No reported NOTAMs for that airfield.



MET'MAP, your aeronautical weather chart ! - Copyright ORBIFLY December 2007 - Disclaimer

ORBIFLY MET'MAP TEAM :

Programming & Development : Alexandra Zaïnal
Concept & Development : Baudouin d'Aumeries
Co-Development & Prog : Marc-Olivier Méhu
Technical & hardware support : Manuel Goepfert

Contact : metmap@orbifly.com




SOURCES & CREDITS :

   NOAA